Time;durP1;ratioP1;P1;durP2;ratioP2;P2;SDS_P1;SDS_P2;PMS_P1;PMS_P2;Temp;Humidity;BMP_temperature;BMP_pressure;BME280_temperature;BME280_humidity;BME280_pressure;Samples;Min_cycle;Max_cycle;Signal;HPM_P1;HPM_P2
2023/08/08 00:00:49;;;;;;;1.17;1.05;;;11.50;99.90;;;;;;5075764;28;20126;-66
2023/08/08 00:03:21;;;;;;;2.33;1.10;;;11.50;99.90;;;;;;5037177;28;20455;-66
2023/08/08 00:05:53;;;;;;;1.77;1.00;;;11.50;99.90;;;;;;5073531;28;20036;-66
2023/08/08 00:08:20;;;;;;;2.53;1.45;;;11.50;99.90;;;;;;5069300;28;20770;-66
2023/08/08 00:10:52;;;;;;;1.83;1.00;;;11.50;99.90;;;;;;5044343;28;20037;-67
2023/08/08 00:13:24;;;;;;;2.88;1.40;;;11.50;99.90;;;;;;5073315;28;20059;-66
2023/08/08 00:15:50;;;;;;;1.38;1.00;;;11.50;99.90;;;;;;5070632;28;20068;-66
2023/08/08 00:18:22;;;;;;;1.95;1.00;;;11.50;99.90;;;;;;5054407;28;20047;-67
2023/08/08 00:20:54;;;;;;;1.42;1.20;;;11.50;99.90;;;;;;5074390;28;20076;-66
2023/08/08 00:23:26;;;;;;;3.65;1.17;;;11.50;99.90;;;;;;5072462;28;20036;-66
2023/08/08 00:25:58;;;;;;;1.88;0.93;;;11.50;99.90;;;;;;5073397;28;20035;-66
2023/08/08 00:28:25;;;;;;;2.53;1.10;;;11.50;99.90;;;;;;5071249;28;20043;-66
2023/08/08 00:30:57;;;;;;;1.33;0.90;;;11.50;99.90;;;;;;5058153;28;20074;-66
2023/08/08 00:33:29;;;;;;;2.85;1.30;;;11.50;99.90;;;;;;5068769;28;20041;-66
2023/08/08 00:36:01;;;;;;;1.52;1.10;;;11.50;99.90;;;;;;5063096;28;20063;-70
2023/08/08 00:38:33;;;;;;;1.25;0.93;;;11.50;99.90;;;;;;5041982;28;20467;-66
2023/08/08 00:41:05;;;;;;;1.88;1.20;;;11.50;99.90;;;;;;5056074;28;20043;-66
2023/08/08 00:43:37;;;;;;;1.88;1.17;;;11.50;99.90;;;;;;5040125;28;20059;-66
2023/08/08 00:46:10;;;;;;;1.40;0.80;;;11.50;99.90;;;;;;5038668;28;20579;-66
2023/08/08 00:48:42;;;;;;;3.45;1.10;;;11.40;99.90;;;;;;5064626;28;20059;-66
2023/08/08 00:51:14;;;;;;;1.50;1.20;;;11.40;99.90;;;;;;5069112;28;20051;-66
2023/08/08 00:53:47;;;;;;;1.42;1.05;;;11.40;99.90;;;;;;5057773;28;20049;-66
2023/08/08 00:56:16;;;;;;;1.77;0.95;;;11.40;99.90;;;;;;5053298;28;20543;-66
2023/08/08 00:58:45;;;;;;;3.25;1.85;;;11.30;99.90;;;;;;5059170;28;20420;-65
2023/08/08 01:01:13;;;;;;;2.00;1.15;;;11.30;99.90;;;;;;5050680;28;20039;-66
2023/08/08 01:03:45;;;;;;;3.30;1.00;;;11.30;99.90;;;;;;5040265;28;20051;-66
2023/08/08 01:06:32;;;;;;;2.00;1.33;;;11.30;99.90;;;;;;5034720;28;20121;-66
2023/08/08 01:09:13;;;;;;;1.25;0.90;;;11.30;99.90;;;;;;5048636;28;20045;-66
2023/08/08 01:11:48;;;;;;;1.20;0.93;;;11.30;99.90;;;;;;5064879;28;20055;-66
2023/08/08 01:14:17;;;;;;;1.73;1.23;;;11.30;99.90;;;;;;5056529;28;20075;-66
2023/08/08 01:16:49;;;;;;;2.42;1.10;;;11.30;99.90;;;;;;5057487;28;20052;-66
2023/08/08 01:19:29;;;;;;;1.05;0.65;;;11.30;99.90;;;;;;5053632;28;20045;-66
2023/08/08 01:22:16;;;;;;;1.00;0.65;;;11.30;99.90;;;;;;5055737;28;20629;-66
2023/08/08 01:24:48;;;;;;;1.83;1.00;;;11.20;99.90;;;;;;5051052;28;20050;-67
2023/08/08 01:27:21;;;;;;;1.27;1.10;;;11.20;99.90;;;;;;5051170;28;20041;-66
2023/08/08 01:29:53;;;;;;;1.30;0.98;;;11.20;99.90;;;;;;5050626;28;20040;-66
2023/08/08 01:32:25;;;;;;;2.00;1.05;;;11.20;99.90;;;;;;5057200;28;20044;-66
2023/08/08 01:34:57;;;;;;;1.30;1.08;;;11.20;99.90;;;;;;5053605;28;20106;-66
2023/08/08 01:37:41;;;;;;;1.27;1.00;;;11.20;99.90;;;;;;5054774;28;20036;-66
2023/08/08 01:40:16;;;;;;;1.45;0.90;;;11.20;99.90;;;;;;5050565;28;20037;-66
2023/08/08 01:42:50;;;;;;;1.55;1.00;;;11.20;99.90;;;;;;5051181;28;20055;-66
2023/08/08 01:45:24;;;;;;;1.60;0.85;;;11.20;99.90;;;;;;5055953;28;20090;-66
2023/08/08 01:47:52;;;;;;;1.83;0.95;;;11.30;99.90;;;;;;5073433;28;20032;-66
2023/08/08 01:50:25;;;;;;;1.70;1.10;;;11.30;99.90;;;;;;5065212;28;20509;-66
2023/08/08 01:52:57;;;;;;;1.80;1.13;;;11.30;99.90;;;;;;5061100;28;20045;-66
2023/08/08 01:55:30;;;;;;;1.45;0.95;;;11.40;99.90;;;;;;5055598;28;20416;-66
2023/08/08 01:57:57;;;;;;;1.77;0.70;;;11.40;99.90;;;;;;5065169;28;20144;-66
2023/08/08 02:00:29;;;;;;;1.73;1.15;;;11.40;99.90;;;;;;5050309;28;20051;-66
2023/08/08 02:03:02;;;;;;;1.52;1.30;;;11.40;99.90;;;;;;5056037;28;20043;-65
2023/08/08 02:05:33;;;;;;;1.25;0.85;;;11.40;99.90;;;;;;5041018;28;20036;-66
2023/08/08 02:08:06;;;;;;;1.27;0.95;;;11.40;99.90;;;;;;5053856;28;20037;-66
2023/08/08 02:10:38;;;;;;;3.30;1.10;;;11.50;99.90;;;;;;5052462;28;20037;-66
2023/08/08 02:13:10;;;;;;;2.00;1.15;;;11.50;99.90;;;;;;5053832;28;20047;-66
2023/08/08 02:15:42;;;;;;;1.17;0.80;;;11.50;99.90;;;;;;5055476;28;20041;-66
2023/08/08 02:18:14;;;;;;;2.65;0.93;;;11.50;99.90;;;;;;5051306;28;20071;-66
2023/08/08 02:20:46;;;;;;;3.42;0.90;;;11.50;99.90;;;;;;5055607;28;20049;-66
2023/08/08 02:23:18;;;;;;;2.08;1.00;;;11.50;99.90;;;;;;5046600;28;20055;-66
2023/08/08 02:25:50;;;;;;;2.40;1.00;;;11.50;99.90;;;;;;5064301;28;20037;-66
2023/08/08 02:28:22;;;;;;;1.10;0.88;;;11.60;99.90;;;;;;5052970;28;20399;-66
2023/08/08 02:30:54;;;;;;;2.45;1.00;;;11.50;99.90;;;;;;5071434;28;20124;-66
2023/08/08 02:33:26;;;;;;;2.05;0.90;;;11.60;99.90;;;;;;5057234;28;20098;-66
2023/08/08 02:35:58;;;;;;;1.25;1.05;;;11.60;99.90;;;;;;5053409;28;20052;-66
2023/08/08 02:38:30;;;;;;;1.90;1.30;;;11.60;99.90;;;;;;5055672;28;20488;-66
2023/08/08 02:41:02;;;;;;;2.70;0.93;;;11.60;99.90;;;;;;5063006;28;20048;-66
2023/08/08 02:43:34;;;;;;;1.40;0.93;;;11.60;99.90;;;;;;5034641;28;20044;-66
2023/08/08 02:46:06;;;;;;;3.13;1.20;;;11.60;99.90;;;;;;5070753;28;20059;-66
2023/08/08 02:48:38;;;;;;;1.40;0.90;;;11.70;99.90;;;;;;5062975;28;20043;-66
2023/08/08 02:51:10;;;;;;;1.50;1.05;;;11.60;99.90;;;;;;5051622;28;20049;-66
2023/08/08 02:53:42;;;;;;;1.55;1.00;;;11.70;99.90;;;;;;5053752;28;20036;-66
2023/08/08 02:56:14;;;;;;;1.65;0.90;;;11.70;99.90;;;;;;5035522;28;20048;-66
2023/08/08 02:58:46;;;;;;;1.15;1.05;;;11.70;99.90;;;;;;5054391;28;20072;-66
2023/08/08 03:01:14;;;;;;;1.85;0.77;;;11.80;99.90;;;;;;5054290;28;20040;-66
2023/08/08 03:03:43;;;;;;;1.85;1.15;;;11.80;99.90;;;;;;5051257;28;20523;-66
2023/08/08 03:06:17;;;;;;;1.58;1.00;;;11.80;99.90;;;;;;5067914;28;20040;-66
2023/08/08 03:08:50;;;;;;;1.25;0.85;;;11.90;99.90;;;;;;5052000;28;20037;-66
2023/08/08 03:11:22;;;;;;;2.13;1.10;;;12.00;99.90;;;;;;5046958;28;20068;-66
2023/08/08 03:13:54;;;;;;;2.20;0.82;;;12.00;99.90;;;;;;5051228;28;20045;-66
2023/08/08 03:16:27;;;;;;;1.48;1.00;;;12.00;99.90;;;;;;5057115;28;20044;-66
2023/08/08 03:18:55;;;;;;;1.90;0.90;;;12.10;99.90;;;;;;5069439;28;20094;-66
2023/08/08 03:21:27;;;;;;;2.00;1.08;;;12.00;99.90;;;;;;5067116;28;20040;-66
2023/08/08 03:23:54;;;;;;;2.83;0.98;;;12.00;99.90;;;;;;5056121;28;20044;-66
2023/08/08 03:26:26;;;;;;;1.30;0.80;;;12.10;99.90;;;;;;5047700;28;20127;-66
2023/08/08 03:28:54;;;;;;;1.10;0.60;;;12.10;99.90;;;;;;5055060;28;20619;-66
2023/08/08 03:31:28;;;;;;;1.50;0.93;;;12.10;99.90;;;;;;5054840;28;20043;-66
2023/08/08 03:34:04;;;;;;;1.17;0.90;;;12.10;99.90;;;;;;5062513;28;20045;-66
2023/08/08 03:36:36;;;;;;;1.17;0.93;;;12.10;99.90;;;;;;5052669;28;20055;-66
2023/08/08 03:39:09;;;;;;;2.33;1.10;;;12.10;99.90;;;;;;5058888;28;20048;-66
2023/08/08 03:41:40;;;;;;;2.38;1.02;;;12.20;99.90;;;;;;5075517;28;20076;-66
2023/08/08 03:44:12;;;;;;;1.90;1.02;;;12.20;99.90;;;;;;5040598;28;20128;-66
2023/08/08 03:46:40;;;;;;;1.33;0.80;;;12.20;99.90;;;;;;5058735;28;20303;-66
2023/08/08 03:49:13;;;;;;;1.58;1.17;;;12.10;99.90;;;;;;5057366;28;20045;-66
2023/08/08 03:51:45;;;;;;;2.30;1.00;;;12.10;99.90;;;;;;5058204;28;20064;-66
2023/08/08 03:54:18;;;;;;;2.42;1.17;;;12.00;99.90;;;;;;5055636;28;20141;-66
2023/08/08 03:56:45;;;;;;;1.52;0.90;;;12.00;99.90;;;;;;5052500;28;20068;-66
2023/08/08 03:59:17;;;;;;;2.00;0.85;;;12.00;99.90;;;;;;5039142;28;20071;-66
2023/08/08 04:01:48;;;;;;;2.55;0.95;;;12.00;99.90;;;;;;5042142;28;20055;-65
2023/08/08 04:04:20;;;;;;;1.15;0.80;;;12.00;99.90;;;;;;5055122;28;20140;-66
2023/08/08 04:06:52;;;;;;;2.15;0.90;;;12.00;99.90;;;;;;5030893;28;20051;-66
2023/08/08 04:09:24;;;;;;;1.27;0.90;;;12.10;99.90;;;;;;5072727;28;20508;-66
2023/08/08 04:11:56;;;;;;;1.13;0.85;;;12.10;99.90;;;;;;5053314;28;20045;-66
2023/08/08 04:14:28;;;;;;;2.15;0.95;;;12.10;99.90;;;;;;5071207;28;20055;-66
2023/08/08 04:17:00;;;;;;;1.95;0.80;;;12.10;99.90;;;;;;5069876;28;20059;-66
2023/08/08 04:19:32;;;;;;;1.95;1.23;;;12.10;99.90;;;;;;5052643;28;20421;-66
2023/08/08 04:22:04;;;;;;;1.45;0.80;;;12.20;99.90;;;;;;5047603;28;20044;-66
2023/08/08 04:24:31;;;;;;;1.88;0.95;;;12.30;99.90;;;;;;5067814;28;20131;-66
2023/08/08 04:27:03;;;;;;;1.27;1.08;;;12.30;99.90;;;;;;5072628;28;20071;-66
2023/08/08 04:29:35;;;;;;;2.28;0.90;;;12.30;99.90;;;;;;5074522;28;20094;-66
2023/08/08 04:32:07;;;;;;;3.85;0.70;;;12.30;99.90;;;;;;5070954;28;20222;-66
2023/08/08 04:34:39;;;;;;;3.47;1.17;;;12.30;99.90;;;;;;5054313;28;20531;-66
2023/08/08 04:37:11;;;;;;;1.63;1.00;;;12.30;99.90;;;;;;5073598;28;20033;-66
2023/08/08 04:39:43;;;;;;;1.70;1.02;;;12.20;99.90;;;;;;5074243;28;20029;-66
2023/08/08 04:42:15;;;;;;;1.30;1.05;;;12.30;99.90;;;;;;5067230;28;20416;-66
2023/08/08 04:44:41;;;;;;;2.30;1.10;;;12.20;99.90;;;;;;5063875;28;20097;-66
2023/08/08 04:47:08;;;;;;;1.30;0.70;;;12.20;99.90;;;;;;5058243;28;20120;-66
2023/08/08 04:49:40;;;;;;;1.88;1.00;;;12.30;99.90;;;;;;5072101;28;20044;-66
2023/08/08 04:52:07;;;;;;;3.92;1.02;;;12.30;99.90;;;;;;5055384;28;20041;-67
2023/08/08 04:54:39;;;;;;;1.52;0.85;;;12.40;99.90;;;;;;5069712;28;20033;-66
2023/08/08 04:57:11;;;;;;;1.90;0.93;;;12.40;99.90;;;;;;5048405;28;20049;-63
2023/08/08 04:59:37;;;;;;;2.45;1.10;;;12.40;99.90;;;;;;5071852;28;20121;-63
2023/08/08 05:02:09;;;;;;;1.63;1.15;;;12.40;99.90;;;;;;5062116;28;20508;-63
2023/08/08 05:04:41;;;;;;;1.23;0.93;;;12.50;99.90;;;;;;5056851;28;20047;-63
2023/08/08 05:07:13;;;;;;;1.42;0.88;;;12.50;99.90;;;;;;5068040;28;20045;-63
2023/08/08 05:09:40;;;;;;;2.55;0.90;;;12.50;99.90;;;;;;5066619;28;20056;-63
2023/08/08 05:12:12;;;;;;;1.70;1.00;;;12.50;99.90;;;;;;5070539;28;20123;-63
2023/08/08 05:14:39;;;;;;;1.55;0.90;;;12.60;99.90;;;;;;5062918;28;20048;-65
2023/08/08 05:17:11;;;;;;;1.50;1.00;;;12.60;99.90;;;;;;5053440;28;20056;-66
2023/08/08 05:19:43;;;;;;;2.33;1.55;;;12.60;99.90;;;;;;5053366;28;20056;-66
2023/08/08 05:22:15;;;;;;;1.42;0.93;;;12.60;99.90;;;;;;5070856;28;20048;-66
2023/08/08 05:24:46;;;;;;;1.73;1.08;;;12.60;99.90;;;;;;5054981;28;20063;-66
2023/08/08 05:27:13;;;;;;;5.18;1.10;;;12.60;99.90;;;;;;5071270;28;20094;-66
2023/08/08 05:29:40;;;;;;;1.60;0.90;;;12.60;99.90;;;;;;5055063;28;20044;-66
2023/08/08 05:32:12;;;;;;;1.67;0.95;;;12.70;99.90;;;;;;5067970;28;20041;-66
2023/08/08 05:34:44;;;;;;;2.85;0.95;;;12.70;99.90;;;;;;5067072;28;20136;-66
2023/08/08 05:37:11;;;;;;;1.98;1.10;;;12.80;99.90;;;;;;5072967;28;20066;-66
2023/08/08 05:39:38;;;;;;;1.90;0.98;;;12.80;99.90;;;;;;5072993;28;20048;-66
2023/08/08 05:42:05;;;;;;;2.72;1.10;;;12.90;99.90;;;;;;5070372;28;20076;-66
2023/08/08 05:44:37;;;;;;;3.65;1.55;;;13.00;99.90;;;;;;5035113;28;20045;-64
2023/08/08 05:47:09;;;;;;;1.30;0.88;;;13.00;99.90;;;;;;5062688;28;20437;-64
2023/08/08 05:49:36;;;;;;;3.17;1.10;;;13.10;99.90;;;;;;5058434;28;20416;-64
2023/08/08 05:52:08;;;;;;;1.58;0.90;;;13.10;99.90;;;;;;5074489;28;20112;-64
2023/08/08 05:54:40;;;;;;;1.67;0.80;;;13.20;99.90;;;;;;5064660;28;20048;-63
2023/08/08 05:57:12;;;;;;;1.65;1.02;;;13.20;99.90;;;;;;5067379;28;20036;-63
2023/08/08 05:59:45;;;;;;;1.02;0.80;;;13.20;99.90;;;;;;5069097;28;20045;-62
2023/08/08 06:02:16;;;;;;;1.40;0.82;;;13.30;99.90;;;;;;5070225;28;20519;-63
2023/08/08 06:04:48;;;;;;;2.42;1.75;;;13.30;99.90;;;;;;5066096;28;20045;-64
2023/08/08 06:07:20;;;;;;;2.20;1.02;;;13.30;99.90;;;;;;5047497;28;20132;-63
2023/08/08 06:09:52;;;;;;;1.15;0.80;;;13.30;99.90;;;;;;5056281;28;20555;-63
2023/08/08 06:12:24;;;;;;;2.08;1.33;;;13.30;99.90;;;;;;5052009;28;20051;-63
2023/08/08 06:14:55;;;;;;;1.52;0.82;;;13.40;99.90;;;;;;5071080;28;20051;-63
2023/08/08 06:17:23;;;;;;;1.13;0.85;;;13.40;99.90;;;;;;5065580;28;20101;-63
2023/08/08 06:19:56;;;;;;;1.40;0.90;;;13.40;99.90;;;;;;5069813;28;20115;-63
2023/08/08 06:22:28;;;;;;;1.92;1.08;;;13.40;99.90;;;;;;5067832;28;20040;-64
2023/08/08 06:25:00;;;;;;;3.80;0.80;;;13.50;99.90;;;;;;5069765;28;20080;-64
2023/08/08 06:27:32;;;;;;;1.60;1.00;;;13.40;99.90;;;;;;5036856;28;20054;-63
2023/08/08 06:29:59;;;;;;;1.60;1.00;;;13.50;99.90;;;;;;5068353;28;20045;-64
2023/08/08 06:32:26;;;;;;;3.33;1.10;;;13.50;99.90;;;;;;5067140;28;20044;-63
2023/08/08 06:34:53;;;;;;;1.85;0.90;;;13.50;99.90;;;;;;5069789;28;20032;-63
2023/08/08 06:37:25;;;;;;;1.00;0.83;;;13.40;99.90;;;;;;5070073;28;20074;-63
2023/08/08 06:39:52;;;;;;;1.60;1.00;;;13.50;99.90;;;;;;5067371;28;20525;-64
2023/08/08 06:42:24;;;;;;;2.28;1.30;;;13.50;99.90;;;;;;5062586;28;20047;-64
2023/08/08 06:44:55;;;;;;;1.48;0.98;;;13.50;99.90;;;;;;5056435;28;20471;-64
2023/08/08 06:47:28;;;;;;;2.40;1.20;;;13.60;99.90;;;;;;5070230;28;20075;-63
2023/08/08 06:50:00;;;;;;;2.10;0.98;;;13.70;99.90;;;;;;5071320;28;20045;-63
2023/08/08 06:52:27;;;;;;;2.67;1.40;;;13.70;99.90;;;;;;5067764;28;20043;-63
2023/08/08 06:54:59;;;;;;;2.95;1.05;;;13.90;99.90;;;;;;5069221;28;20048;-63
2023/08/08 06:57:33;;;;;;;0.80;0.80;;;14.00;99.90;;;;;;5056118;28;20059;-62
2023/08/08 07:00:06;;;;;;;2.65;1.25;;;14.10;99.90;;;;;;5070366;28;20082;-63
2023/08/08 07:02:37;;;;;;;1.83;0.98;;;14.20;99.90;;;;;;5071378;28;20163;-63
2023/08/08 07:05:10;;;;;;;2.72;1.05;;;14.30;99.90;;;;;;5053921;28;20489;-63
2023/08/08 07:07:41;;;;;;;2.40;1.10;;;14.40;99.90;;;;;;5066724;28;20090;-63
2023/08/08 07:10:13;;;;;;;1.40;1.17;;;14.50;99.90;;;;;;5070330;28;20033;-64
2023/08/08 07:12:45;;;;;;;1.33;0.90;;;14.60;99.90;;;;;;5071874;28;20055;-63
2023/08/08 07:15:18;;;;;;;1.63;1.05;;;14.70;99.90;;;;;;5067553;28;20500;-63
2023/08/08 07:17:45;;;;;;;2.25;1.25;;;14.70;99.90;;;;;;5070173;28;20041;-63
2023/08/08 07:20:17;;;;;;;2.17;1.17;;;14.80;99.90;;;;;;5071706;28;20544;-62
2023/08/08 07:22:49;;;;;;;1.88;0.90;;;14.90;99.90;;;;;;5068371;28;20040;-63
2023/08/08 07:25:21;;;;;;;2.35;0.80;;;15.00;99.90;;;;;;5072798;28;20566;-63
2023/08/08 07:27:53;;;;;;;2.33;1.23;;;15.00;99.90;;;;;;5038247;28;20526;-63
2023/08/08 07:30:20;;;;;;;6.43;1.63;;;15.10;99.90;;;;;;5072955;28;20043;-63
2023/08/08 07:32:48;;;;;;;1.88;0.90;;;15.20;99.90;;;;;;5065209;28;20037;-63
2023/08/08 07:35:21;;;;;;;2.97;1.20;;;15.30;99.90;;;;;;5051844;28;20104;-63
2023/08/08 07:37:53;;;;;;;3.00;1.20;;;15.40;99.90;;;;;;5053639;28;20044;-63
2023/08/08 07:40:25;;;;;;;1.50;1.23;;;15.50;99.90;;;;;;5051209;28;20033;-63
2023/08/08 07:42:57;;;;;;;1.70;0.90;;;15.60;99.90;;;;;;5048257;28;20041;-63
2023/08/08 07:45:30;;;;;;;2.78;1.20;;;15.70;99.90;;;;;;5069902;28;20040;-63
2023/08/08 07:48:02;;;;;;;2.00;1.33;;;15.80;99.90;;;;;;5070177;28;20130;-63
2023/08/08 07:50:33;;;;;;;2.28;0.88;;;16.00;99.90;;;;;;5067887;28;20040;-63
2023/08/08 07:53:05;;;;;;;1.65;1.08;;;16.10;99.90;;;;;;5052576;28;20523;-63
2023/08/08 07:55:37;;;;;;;2.00;1.27;;;16.20;99.90;;;;;;5051252;28;20110;-63
2023/08/08 07:58:09;;;;;;;1.85;1.20;;;16.30;99.90;;;;;;5051811;28;20680;-63
2023/08/08 08:00:35;;;;;;;2.75;1.00;;;16.30;99.90;;;;;;5070777;28;20032;-63
2023/08/08 08:03:07;;;;;;;1.75;1.00;;;16.30;99.90;;;;;;5046991;28;20053;-63
2023/08/08 08:05:39;;;;;;;2.28;1.05;;;16.40;99.90;;;;;;5054137;28;20048;-63
2023/08/08 08:08:06;;;;;;;2.25;1.20;;;16.50;99.90;;;;;;5068091;28;20032;-63
2023/08/08 08:10:33;;;;;;;1.60;1.10;;;16.60;99.90;;;;;;5068814;28;20041;-65
2023/08/08 08:13:05;;;;;;;2.38;1.10;;;16.70;99.90;;;;;;5066037;28;20046;-63
2023/08/08 08:15:31;;;;;;;3.40;0.93;;;16.70;99.90;;;;;;5069783;28;20120;-63
2023/08/08 08:18:03;;;;;;;1.90;1.00;;;16.80;99.90;;;;;;5064391;28;20048;-63
2023/08/08 08:20:35;;;;;;;1.50;1.20;;;16.90;99.90;;;;;;5051388;28;20037;-63
2023/08/08 08:23:07;;;;;;;1.95;1.42;;;16.90;99.90;;;;;;5070152;28;20073;-63
2023/08/08 08:25:39;;;;;;;1.45;1.05;;;16.80;99.90;;;;;;5064828;28;20040;-63
2023/08/08 08:28:11;;;;;;;1.60;1.20;;;16.90;99.90;;;;;;5068087;28;20078;-63
2023/08/08 08:30:38;;;;;;;3.03;1.50;;;17.00;99.90;;;;;;5068395;28;20392;-63
2023/08/08 08:33:10;;;;;;;1.55;1.25;;;17.10;99.90;;;;;;5068760;28;20055;-63
2023/08/08 08:35:42;;;;;;;3.92;1.40;;;17.10;99.90;;;;;;5068486;28;20054;-62
2023/08/08 08:38:13;;;;;;;3.15;1.48;;;17.20;99.90;;;;;;5071865;28;20048;-62
2023/08/08 08:40:48;;;;;;;4.05;1.35;;;17.20;99.90;;;;;;5069451;28;20715;-62
2023/08/08 08:43:20;;;;;;;2.53;1.30;;;17.20;99.90;;;;;;5070748;28;20480;-62
2023/08/08 08:45:53;;;;;;;2.92;1.38;;;17.20;99.90;;;;;;5073372;28;20036;-62
2023/08/08 08:48:25;;;;;;;1.88;1.65;;;17.30;99.90;;;;;;5067370;28;20412;-62
2023/08/08 08:50:57;;;;;;;2.47;1.38;;;17.40;99.90;;;;;;5074263;28;20047;-62
2023/08/08 08:53:29;;;;;;;2.72;1.40;;;17.50;99.90;;;;;;5070933;28;20044;-62
2023/08/08 08:56:02;;;;;;;2.40;1.40;;;17.50;99.90;;;;;;5069216;28;20043;-62
2023/08/08 08:58:34;;;;;;;2.92;1.90;;;17.70;99.90;;;;;;5070556;28;20040;-62
2023/08/08 09:01:02;;;;;;;2.97;1.45;;;17.70;99.90;;;;;;5070055;28;20038;-62
2023/08/08 09:03:34;;;;;;;2.17;1.63;;;17.80;99.90;;;;;;5066487;28;20032;-61
2023/08/08 09:06:02;;;;;;;2.00;1.50;;;18.00;99.90;;;;;;5069583;28;20037;-62
2023/08/08 09:08:34;;;;;;;;;;;17.90;99.90;;;;;;5071389;28;20123;-62
2023/08/08 09:11:06;;;;;;;3.72;1.58;;;18.00;99.90;;;;;;5065218;28;20012;-62
2023/08/08 09:13:39;;;;;;;3.42;1.30;;;18.10;99.90;;;;;;5070030;28;20028;-62
2023/08/08 09:16:08;;;;;;;1.40;1.20;;;18.10;99.90;;;;;;5069911;28;20455;-62
2023/08/08 09:18:42;;;;;;;;;;;18.00;99.90;;;;;;5037115;28;20055;-62
2023/08/08 09:21:15;;;;;;;2.00;1.40;;;18.10;99.90;;;;;;5053499;28;19928;-62
2023/08/08 09:23:43;;;;;;;3.20;1.48;;;18.10;99.90;;;;;;5065846;28;20080;-62
2023/08/08 09:26:16;;;;;;;2.45;1.85;;;18.10;99.90;;;;;;5068000;28;20540;-62
2023/08/08 09:28:48;;;;;;;2.33;1.40;;;18.10;99.90;;;;;;5068992;28;20535;-62
2023/08/08 09:31:20;;;;;;;4.32;1.90;;;18.30;99.90;;;;;;5066212;28;20041;-62
2023/08/08 09:33:54;;;;;;;2.20;1.50;;;18.40;99.90;;;;;;5066534;28;20516;-62
2023/08/08 09:36:27;;;;;;;2.53;1.50;;;18.30;99.90;;;;;;5052993;28;20040;-62
2023/08/08 09:38:59;;;;;;;1.25;1.15;;;18.30;99.90;;;;;;5068477;28;20119;-62
2023/08/08 09:41:31;;;;;;;2.85;1.50;;;18.40;99.90;;;;;;5052107;28;20055;-62
2023/08/08 09:44:03;;;;;;;2.60;1.58;;;18.50;99.90;;;;;;5069854;28;20080;-62
2023/08/08 09:46:35;;;;;;;2.10;1.58;;;18.60;99.90;;;;;;5070576;28;20427;-62
2023/08/08 09:49:08;;;;;;;3.85;1.83;;;18.50;99.90;;;;;;5070469;28;20040;-62
2023/08/08 09:51:40;;;;;;;3.65;1.50;;;18.40;99.90;;;;;;5066075;28;20677;-62
2023/08/08 09:54:13;;;;;;;3.15;1.83;;;18.30;99.90;;;;;;5069593;28;20029;-62
2023/08/08 09:56:46;;;;;;;2.15;1.40;;;18.20;99.90;;;;;;5063974;28;20060;-62
2023/08/08 09:59:13;;;;;;;2.17;1.33;;;18.30;99.90;;;;;;5067473;28;20037;-62
2023/08/08 10:01:47;;;;;;;1.58;1.20;;;18.50;99.90;;;;;;5070243;28;20073;-62
2023/08/08 10:04:20;;;;;;;1.60;1.27;;;18.60;99.90;;;;;;5068031;28;20039;-62
2023/08/08 10:06:52;;;;;;;2.58;1.50;;;18.70;99.90;;;;;;5068450;28;20534;-62
2023/08/08 10:09:24;;;;;;;3.25;1.60;;;18.90;99.90;;;;;;5064341;28;20032;-62
2023/08/08 10:11:53;;;;;;;1.67;1.35;;;19.00;99.90;;;;;;5049229;28;20036;-60
2023/08/08 10:14:34;;;;;;;6.07;2.15;;;19.20;99.90;;;;;;5067096;28;20661;-62
2023/08/08 10:17:06;;;;;;;5.82;1.83;;;19.30;99.90;;;;;;5068062;28;20462;-62
2023/08/08 10:19:33;;;;;;;22.27;6.53;;;19.30;99.90;;;;;;5068872;28;20576;-62
2023/08/08 10:22:07;;;;;;;2.17;1.40;;;19.30;99.90;;;;;;5040284;28;20045;-62
2023/08/08 10:24:39;;;;;;;2.17;1.48;;;19.50;99.90;;;;;;5064954;28;20090;-62
2023/08/08 10:27:11;;;;;;;4.63;1.90;;;19.60;99.90;;;;;;5048833;28;20850;-62
2023/08/08 10:29:46;;;;;;;3.10;1.92;;;19.70;99.90;;;;;;5070227;28;20501;-62
2023/08/08 10:32:25;;;;;;;3.42;1.70;;;19.60;99.90;;;;;;5067585;28;20050;-62
2023/08/08 10:35:00;;;;;;;1.85;1.33;;;19.50;99.90;;;;;;5066116;28;20052;-62
2023/08/08 10:37:32;;;;;;;3.55;1.80;;;19.50;99.90;;;;;;5071309;28;20033;-62
2023/08/08 10:40:00;;;;;;;1.83;1.50;;;19.50;99.90;;;;;;5053315;28;20071;-62
2023/08/08 10:42:40;;;;;;;3.17;1.40;;;19.50;99.90;;;;;;5067710;28;20060;-62
2023/08/08 10:45:11;;;;;;;2.53;1.50;;;19.70;99.90;;;;;;5035642;28;20051;-62
2023/08/08 10:47:44;;;;;;;2.22;1.30;;;19.80;99.90;;;;;;5055857;28;20046;-62
2023/08/08 10:50:22;;;;;;;6.80;2.90;;;19.80;99.90;;;;;;5070220;28;20037;-62
2023/08/08 10:52:55;;;;;;;2.35;1.60;;;19.60;99.90;;;;;;5070238;28;20048;-62
2023/08/08 10:55:33;;;;;;;3.55;1.25;;;19.70;99.90;;;;;;5073119;28;20051;-62
2023/08/08 10:58:06;;;;;;;4.10;1.90;;;19.70;99.90;;;;;;5055237;28;20049;-62
2023/08/08 11:00:39;;;;;;;1.75;1.40;;;19.80;99.90;;;;;;5070768;28;20052;-62
2023/08/08 11:03:11;;;;;;;;;;;19.80;99.90;;;;;;5074110;28;20060;-62
2023/08/08 11:05:48;;;;;;;2.20;1.38;;;20.00;99.90;;;;;;5076311;28;19920;-61
2023/08/08 11:08:23;;;;;;;3.10;1.92;;;20.00;99.90;;;;;;5072016;28;20040;-62
2023/08/08 11:10:56;;;;;;;2.38;1.45;;;20.10;99.90;;;;;;5056433;28;20474;-62
2023/08/08 11:13:28;;;;;;;2.20;1.23;;;20.10;99.90;;;;;;5068599;28;20064;-62
2023/08/08 11:16:01;;;;;;;1.85;1.23;;;20.20;99.90;;;;;;5070926;28;20043;-63
2023/08/08 11:18:29;;;;;;;2.92;1.50;;;20.30;99.90;;;;;;5061506;28;20037;-69
2023/08/08 11:21:09;;;;;;;2.30;1.30;;;20.50;99.90;;;;;;5064738;28;20047;-61
2023/08/08 11:23:38;;;;;;;2.75;1.55;;;20.50;99.90;;;;;;5065965;28;20796;-61
2023/08/08 11:26:10;;;;;;;3.08;1.40;;;20.60;99.90;;;;;;5059433;28;20044;-61
2023/08/08 11:28:50;;;;;;;1.95;1.40;;;20.70;99.90;;;;;;5073772;28;20036;-61
2023/08/08 11:31:22;;;;;;;2.03;1.45;;;20.60;99.90;;;;;;5070783;28;20037;-61
2023/08/08 11:33:54;;;;;;;2.72;1.40;;;20.40;99.90;;;;;;5072840;28;20044;-61
2023/08/08 11:36:23;;;;;;;2.03;1.40;;;20.30;99.90;;;;;;5072685;28;20071;-62
2023/08/08 11:38:51;;;;;;;2.58;1.25;;;20.00;99.90;;;;;;5076395;28;20150;-62
2023/08/08 11:41:24;;;;;;;2.90;2.30;;;20.00;99.90;;;;;;5075076;28;20106;-62
2023/08/08 11:43:56;;;;;;;1.83;1.23;;;20.30;99.90;;;;;;5074487;28;20040;-61
2023/08/08 11:46:28;;;;;;;2.53;1.42;;;20.40;99.90;;;;;;5057632;28;20045;-62
2023/08/08 11:49:06;;;;;;;1.33;1.15;;;20.60;99.90;;;;;;5072514;28;20048;-62
2023/08/08 11:51:34;;;;;;;;;;;20.60;99.90;;;;;;5072902;28;20071;-62
2023/08/08 11:54:06;;;;;;;2.08;1.73;;;20.70;99.90;;;;;;5075971;28;19924;-62
2023/08/08 11:56:38;;;;;;;2.47;1.40;;;20.90;99.90;;;;;;5056711;28;20041;-62
2023/08/08 11:59:12;;;;;;;3.28;1.67;;;20.90;99.90;;;;;;5073712;28;20046;-62
2023/08/08 12:01:44;;;;;;;2.80;1.30;;;20.80;99.90;;;;;;5072064;28;20496;-63
2023/08/08 12:04:16;;;;;;;2.22;1.40;;;20.70;99.90;;;;;;5049125;28;20127;-63
2023/08/08 12:06:43;;;;;;;2.00;1.05;;;20.70;99.90;;;;;;5070201;28;20047;-63
2023/08/08 12:09:15;;;;;;;2.25;1.30;;;20.60;99.90;;;;;;5053324;28;20049;-63
2023/08/08 12:11:47;;;;;;;2.67;1.25;;;20.60;99.90;;;;;;5071007;28;20420;-63
2023/08/08 12:14:19;;;;;;;2.15;1.65;;;20.40;99.90;;;;;;5073863;28;20044;-63
2023/08/08 12:16:45;;;;;;;2.20;1.25;;;20.30;99.90;;;;;;5075455;28;20147;-63
2023/08/08 12:19:23;;;;;;;2.25;1.70;;;20.30;99.90;;;;;;5074527;28;20123;-63
2023/08/08 12:21:55;;;;;;;3.35;1.60;;;20.30;99.90;;;;;;5067670;28;20045;-62
2023/08/08 12:24:27;;;;;;;1.50;1.20;;;20.50;99.90;;;;;;5073001;28;20040;-64
2023/08/08 12:26:58;;;;;;;1.95;1.10;;;20.60;99.90;;;;;;5054436;28;20045;-63
2023/08/08 12:29:30;;;;;;;2.45;1.40;;;20.70;99.90;;;;;;5050886;28;20110;-62
2023/08/08 12:32:07;;;;;;;1.95;1.42;;;20.70;99.90;;;;;;5069642;28;20048;-63
2023/08/08 12:34:39;;;;;;;2.28;1.48;;;20.40;99.90;;;;;;5069720;28;20041;-65
2023/08/08 12:37:11;;;;;;;1.73;1.40;;;20.40;99.90;;;;;;5067612;28;20041;-61
2023/08/08 12:39:43;;;;;;;1.70;1.17;;;20.30;99.90;;;;;;5071539;28;20072;-63
2023/08/08 12:42:14;;;;;;;1.20;1.10;;;20.20;99.90;;;;;;5055406;28;20043;-63
2023/08/08 12:44:47;;;;;;;2.13;1.27;;;20.30;99.90;;;;;;5077274;28;20128;-62
2023/08/08 12:47:20;;;;;;;2.25;1.33;;;20.40;99.90;;;;;;5055584;28;20047;-63
2023/08/08 12:49:52;;;;;;;;;;;20.50;99.90;;;;;;5053577;28;20116;-63
2023/08/08 12:52:24;;;;;;;2.75;1.48;;;20.50;99.90;;;;;;5069494;28;20438;-62
2023/08/08 12:54:55;;;;;;;1.80;1.13;;;20.50;99.90;;;;;;5049922;28;20139;-63
2023/08/08 12:57:27;;;;;;;2.97;1.50;;;20.50;99.90;;;;;;5072803;28;20151;-62
2023/08/08 13:00:00;;;;;;;2.42;1.05;;;20.80;99.90;;;;;;5070955;28;20076;-63
2023/08/08 13:02:33;;;;;;;1.60;1.15;;;21.00;99.90;;;;;;5065804;28;20114;-63
2023/08/08 13:05:07;;;;;;;1.67;1.40;;;21.20;99.90;;;;;;5068950;28;20032;-62
2023/08/08 13:07:39;;;;;;;1.42;1.20;;;21.20;99.90;;;;;;5067862;28;20115;-61
2023/08/08 13:10:10;;;;;;;1.27;1.17;;;21.00;99.90;;;;;;5036236;28;20036;-61